sensor_id;sensor_type;location;lat;lon;timestamp;temperature;humidity
6756;DHT22;3415;51.148;7.014;2023-06-24T00:01:29;17.00;1.00
6756;DHT22;3415;51.148;7.014;2023-06-24T00:03:58;17.00;1.00
6756;DHT22;3415;51.148;7.014;2023-06-24T00:06:25;17.00;1.00
6756;DHT22;3415;51.148;7.014;2023-06-24T00:08:52;17.00;1.00
6756;DHT22;3415;51.148;7.014;2023-06-24T00:11:26;17.00;1.00
6756;DHT22;3415;51.148;7.014;2023-06-24T00:13:53;17.00;1.00
6756;DHT22;3415;51.148;7.014;2023-06-24T00:16:19;16.90;1.00
6756;DHT22;3415;51.148;7.014;2023-06-24T00:18:52;16.80;1.00
6756;DHT22;3415;51.148;7.014;2023-06-24T00:21:20;16.80;1.00
6756;DHT22;3415;51.148;7.014;2023-06-24T00:23:48;16.80;1.00
6756;DHT22;3415;51.148;7.014;2023-06-24T00:26:15;16.80;1.00
6756;DHT22;3415;51.148;7.014;2023-06-24T00:28:43;16.80;1.00
6756;DHT22;3415;51.148;7.014;2023-06-24T00:31:09;16.70;1.00
6756;DHT22;3415;51.148;7.014;2023-06-24T00:33:37;16.70;1.00
6756;DHT22;3415;51.148;7.014;2023-06-24T00:36:04;16.70;1.00
6756;DHT22;3415;51.148;7.014;2023-06-24T00:38:35;17.20;1.00
6756;DHT22;3415;51.148;7.014;2023-06-24T00:41:02;16.60;1.00
6756;DHT22;3415;51.148;7.014;2023-06-24T00:43:29;16.60;1.00
6756;DHT22;3415;51.148;7.014;2023-06-24T00:45:56;16.60;1.00
6756;DHT22;3415;51.148;7.014;2023-06-24T00:48:23;16.60;1.00
6756;DHT22;3415;51.148;7.014;2023-06-24T00:50:50;16.50;1.00
6756;DHT22;3415;51.148;7.014;2023-06-24T00:53:18;16.50;1.00
6756;DHT22;3415;51.148;7.014;2023-06-24T00:55:47;16.40;1.00
6756;DHT22;3415;51.148;7.014;2023-06-24T00:58:15;16.30;1.00
6756;DHT22;3415;51.148;7.014;2023-06-24T01:00:42;16.20;1.00
6756;DHT22;3415;51.148;7.014;2023-06-24T01:03:10;16.20;1.00
6756;DHT22;3415;51.148;7.014;2023-06-24T01:05:40;16.00;1.00
6756;DHT22;3415;51.148;7.014;2023-06-24T01:08:07;16.20;1.00
6756;DHT22;3415;51.148;7.014;2023-06-24T01:10:35;16.20;1.00
6756;DHT22;3415;51.148;7.014;2023-06-24T01:13:04;16.10;1.00
6756;DHT22;3415;51.148;7.014;2023-06-24T01:15:30;16.00;1.00
6756;DHT22;3415;51.148;7.014;2023-06-24T01:18:02;15.90;1.00
6756;DHT22;3415;51.148;7.014;2023-06-24T01:20:39;15.90;1.00
6756;DHT22;3415;51.148;7.014;2023-06-24T01:23:35;15.90;1.00
6756;DHT22;3415;51.148;7.014;2023-06-24T01:26:21;16.00;1.00
6756;DHT22;3415;51.148;7.014;2023-06-24T01:32:00;16.00;1.00
6756;DHT22;3415;51.148;7.014;2023-06-24T01:34:34;16.00;1.00
6756;DHT22;3415;51.148;7.014;2023-06-24T01:37:08;16.00;1.00
6756;DHT22;3415;51.148;7.014;2023-06-24T01:39:41;16.00;1.00
6756;DHT22;3415;51.148;7.014;2023-06-24T01:42:11;16.00;1.00
6756;DHT22;3415;51.148;7.014;2023-06-24T01:44:42;15.80;1.00
6756;DHT22;3415;51.148;7.014;2023-06-24T01:47:10;15.90;1.00
6756;DHT22;3415;51.148;7.014;2023-06-24T01:49:39;15.90;1.00
6756;DHT22;3415;51.148;7.014;2023-06-24T01:52:08;15.90;1.00
6756;DHT22;3415;51.148;7.014;2023-06-24T01:54:35;15.90;1.00
6756;DHT22;3415;51.148;7.014;2023-06-24T01:57:05;15.90;1.00
6756;DHT22;3415;51.148;7.014;2023-06-24T01:59:34;15.80;1.00
6756;DHT22;3415;51.148;7.014;2023-06-24T02:02:03;15.90;1.00
6756;DHT22;3415;51.148;7.014;2023-06-24T02:04:34;15.80;1.00
6756;DHT22;3415;51.148;7.014;2023-06-24T02:07:03;15.80;1.00
6756;DHT22;3415;51.148;7.014;2023-06-24T02:09:32;15.80;1.00
6756;DHT22;3415;51.148;7.014;2023-06-24T02:12:01;15.80;1.00
6756;DHT22;3415;51.148;7.014;2023-06-24T02:14:30;15.80;1.00
6756;DHT22;3415;51.148;7.014;2023-06-24T02:17:00;15.80;1.00
6756;DHT22;3415;51.148;7.014;2023-06-24T02:19:29;15.80;1.00
6756;DHT22;3415;51.148;7.014;2023-06-24T02:21:59;15.80;1.00
6756;DHT22;3415;51.148;7.014;2023-06-24T02:24:27;15.80;1.00
6756;DHT22;3415;51.148;7.014;2023-06-24T02:26:56;15.80;1.00
6756;DHT22;3415;51.148;7.014;2023-06-24T02:29:25;15.80;1.00
6756;DHT22;3415;51.148;7.014;2023-06-24T02:31:53;15.80;1.00
6756;DHT22;3415;51.148;7.014;2023-06-24T02:34:23;15.80;1.00
6756;DHT22;3415;51.148;7.014;2023-06-24T02:36:50;15.90;1.00
6756;DHT22;3415;51.148;7.014;2023-06-24T02:39:19;15.80;1.00
6756;DHT22;3415;51.148;7.014;2023-06-24T02:41:46;15.70;1.00
6756;DHT22;3415;51.148;7.014;2023-06-24T02:44:15;15.60;1.00
6756;DHT22;3415;51.148;7.014;2023-06-24T02:46:42;15.60;1.00
6756;DHT22;3415;51.148;7.014;2023-06-24T02:49:11;15.60;1.00
6756;DHT22;3415;51.148;7.014;2023-06-24T02:51:38;15.60;1.00
6756;DHT22;3415;51.148;7.014;2023-06-24T02:54:06;15.60;1.00
6756;DHT22;3415;51.148;7.014;2023-06-24T02:56:35;15.50;1.00
6756;DHT22;3415;51.148;7.014;2023-06-24T02:59:07;15.50;1.00
6756;DHT22;3415;51.148;7.014;2023-06-24T03:01:36;15.60;1.00
6756;DHT22;3415;51.148;7.014;2023-06-24T03:04:04;15.50;1.00
6756;DHT22;3415;51.148;7.014;2023-06-24T03:06:32;15.50;1.00
6756;DHT22;3415;51.148;7.014;2023-06-24T03:09:02;15.50;1.00
6756;DHT22;3415;51.148;7.014;2023-06-24T03:11:29;15.40;1.00
6756;DHT22;3415;51.148;7.014;2023-06-24T03:13:59;15.50;1.00
6756;DHT22;3415;51.148;7.014;2023-06-24T03:16:25;15.50;1.00
6756;DHT22;3415;51.148;7.014;2023-06-24T03:18:52;15.50;1.00
6756;DHT22;3415;51.148;7.014;2023-06-24T03:21:19;15.60;1.00
6756;DHT22;3415;51.148;7.014;2023-06-24T03:23:46;15.60;1.00
6756;DHT22;3415;51.148;7.014;2023-06-24T03:26:13;15.60;1.00
6756;DHT22;3415;51.148;7.014;2023-06-24T03:28:39;15.60;1.00
6756;DHT22;3415;51.148;7.014;2023-06-24T03:31:08;15.50;1.00
6756;DHT22;3415;51.148;7.014;2023-06-24T03:33:34;15.60;1.00
6756;DHT22;3415;51.148;7.014;2023-06-24T03:36:02;15.50;1.00
6756;DHT22;3415;51.148;7.014;2023-06-24T03:38:29;15.50;1.00
6756;DHT22;3415;51.148;7.014;2023-06-24T03:40:56;15.50;1.00
6756;DHT22;3415;51.148;7.014;2023-06-24T03:43:22;15.50;1.00
6756;DHT22;3415;51.148;7.014;2023-06-24T03:45:49;15.50;1.00
6756;DHT22;3415;51.148;7.014;2023-06-24T03:48:17;15.60;1.00
6756;DHT22;3415;51.148;7.014;2023-06-24T03:50:44;15.60;1.00
6756;DHT22;3415;51.148;7.014;2023-06-24T03:53:11;15.60;1.00
6756;DHT22;3415;51.148;7.014;2023-06-24T03:55:38;15.70;1.00
6756;DHT22;3415;51.148;7.014;2023-06-24T03:58:05;15.70;1.00
6756;DHT22;3415;51.148;7.014;2023-06-24T04:00:31;15.70;1.00
6756;DHT22;3415;51.148;7.014;2023-06-24T04:02:58;15.80;1.00
6756;DHT22;3415;51.148;7.014;2023-06-24T04:05:28;15.80;1.00
6756;DHT22;3415;51.148;7.014;2023-06-24T04:07:55;16.10;1.00
6756;DHT22;3415;51.148;7.014;2023-06-24T04:10:21;15.90;1.00
6756;DHT22;3415;51.148;7.014;2023-06-24T04:12:48;15.90;1.00
6756;DHT22;3415;51.148;7.014;2023-06-24T04:15:15;16.10;1.00
6756;DHT22;3415;51.148;7.014;2023-06-24T04:17:42;16.00;1.00
6756;DHT22;3415;51.148;7.014;2023-06-24T04:20:09;16.10;1.00
6756;DHT22;3415;51.148;7.014;2023-06-24T04:22:39;16.20;1.00
6756;DHT22;3415;51.148;7.014;2023-06-24T04:25:07;16.20;1.00
6756;DHT22;3415;51.148;7.014;2023-06-24T04:27:34;16.30;1.00
6756;DHT22;3415;51.148;7.014;2023-06-24T04:30:01;16.30;1.00
6756;DHT22;3415;51.148;7.014;2023-06-24T04:32:28;16.30;1.00
6756;DHT22;3415;51.148;7.014;2023-06-24T04:34:55;16.40;1.00
6756;DHT22;3415;51.148;7.014;2023-06-24T04:37:22;16.70;1.00
6756;DHT22;3415;51.148;7.014;2023-06-24T04:39:50;16.50;1.00
6756;DHT22;3415;51.148;7.014;2023-06-24T04:42:17;16.50;1.00
6756;DHT22;3415;51.148;7.014;2023-06-24T04:44:44;16.60;1.00
6756;DHT22;3415;51.148;7.014;2023-06-24T04:47:11;16.70;1.00
6756;DHT22;3415;51.148;7.014;2023-06-24T04:49:39;17.00;1.00
6756;DHT22;3415;51.148;7.014;2023-06-24T04:52:07;17.00;1.00
6756;DHT22;3415;51.148;7.014;2023-06-24T04:54:33;17.10;1.00
6756;DHT22;3415;51.148;7.014;2023-06-24T04:57:02;17.20;1.00
6756;DHT22;3415;51.148;7.014;2023-06-24T04:59:29;17.20;1.00
6756;DHT22;3415;51.148;7.014;2023-06-24T05:01:55;17.40;1.00
6756;DHT22;3415;51.148;7.014;2023-06-24T05:04:22;17.40;1.00
6756;DHT22;3415;51.148;7.014;2023-06-24T05:06:49;17.50;1.00
6756;DHT22;3415;51.148;7.014;2023-06-24T05:09:16;17.60;1.00
6756;DHT22;3415;51.148;7.014;2023-06-24T05:11:43;17.70;1.00
6756;DHT22;3415;51.148;7.014;2023-06-24T05:14:11;17.90;1.00
6756;DHT22;3415;51.148;7.014;2023-06-24T05:16:38;18.00;1.00
6756;DHT22;3415;51.148;7.014;2023-06-24T05:19:04;18.10;1.00
6756;DHT22;3415;51.148;7.014;2023-06-24T05:21:31;18.20;1.00
6756;DHT22;3415;51.148;7.014;2023-06-24T05:23:58;18.20;1.00
6756;DHT22;3415;51.148;7.014;2023-06-24T05:26:25;18.30;1.00
6756;DHT22;3415;51.148;7.014;2023-06-24T05:28:52;18.30;1.00
6756;DHT22;3415;51.148;7.014;2023-06-24T05:31:20;18.50;1.00
6756;DHT22;3415;51.148;7.014;2023-06-24T05:33:47;18.60;1.00
6756;DHT22;3415;51.148;7.014;2023-06-24T05:36:14;18.80;1.00
6756;DHT22;3415;51.148;7.014;2023-06-24T05:38:40;19.00;1.00
6756;DHT22;3415;51.148;7.014;2023-06-24T05:41:07;19.10;1.00
6756;DHT22;3415;51.148;7.014;2023-06-24T05:43:34;19.30;1.00
6756;DHT22;3415;51.148;7.014;2023-06-24T05:46:01;19.60;1.00
6756;DHT22;3415;51.148;7.014;2023-06-24T05:48:29;20.20;1.00
6756;DHT22;3415;51.148;7.014;2023-06-24T05:50:56;20.30;1.00
6756;DHT22;3415;51.148;7.014;2023-06-24T05:53:22;20.50;1.00
6756;DHT22;3415;51.148;7.014;2023-06-24T05:55:50;20.60;1.00
6756;DHT22;3415;51.148;7.014;2023-06-24T05:58:17;20.60;1.00
6756;DHT22;3415;51.148;7.014;2023-06-24T06:00:43;20.80;1.00
6756;DHT22;3415;51.148;7.014;2023-06-24T06:03:10;21.10;1.00
6756;DHT22;3415;51.148;7.014;2023-06-24T06:05:38;21.60;1.00
6756;DHT22;3415;51.148;7.014;2023-06-24T06:08:05;21.80;1.00
6756;DHT22;3415;51.148;7.014;2023-06-24T06:10:32;22.10;1.00
6756;DHT22;3415;51.148;7.014;2023-06-24T06:12:59;22.40;1.00
6756;DHT22;3415;51.148;7.014;2023-06-24T06:15:25;22.40;1.00
6756;DHT22;3415;51.148;7.014;2023-06-24T06:17:52;22.30;1.00
6756;DHT22;3415;51.148;7.014;2023-06-24T06:20:19;22.20;1.00
6756;DHT22;3415;51.148;7.014;2023-06-24T06:22:47;22.30;1.00
6756;DHT22;3415;51.148;7.014;2023-06-24T06:25:16;22.50;1.00
6756;DHT22;3415;51.148;7.014;2023-06-24T06:27:43;23.00;1.00
6756;DHT22;3415;51.148;7.014;2023-06-24T06:30:11;23.10;1.00
6756;DHT22;3415;51.148;7.014;2023-06-24T06:32:38;22.90;1.00
6756;DHT22;3415;51.148;7.014;2023-06-24T06:35:06;23.00;1.00
6756;DHT22;3415;51.148;7.014;2023-06-24T06:37:33;23.30;1.00
6756;DHT22;3415;51.148;7.014;2023-06-24T06:40:02;23.10;1.00
6756;DHT22;3415;51.148;7.014;2023-06-24T06:42:29;23.40;1.00
6756;DHT22;3415;51.148;7.014;2023-06-24T06:44:56;24.10;1.00
6756;DHT22;3415;51.148;7.014;2023-06-24T06:47:23;24.60;99.90
6756;DHT22;3415;51.148;7.014;2023-06-24T06:49:50;24.70;99.90
6756;DHT22;3415;51.148;7.014;2023-06-24T06:52:17;24.60;99.90
6756;DHT22;3415;51.148;7.014;2023-06-24T06:54:44;24.30;99.90
6756;DHT22;3415;51.148;7.014;2023-06-24T06:57:12;23.90;99.90
6756;DHT22;3415;51.148;7.014;2023-06-24T06:59:39;24.40;99.90
6756;DHT22;3415;51.148;7.014;2023-06-24T07:02:06;24.80;99.90
6756;DHT22;3415;51.148;7.014;2023-06-24T07:04:33;24.60;99.90
6756;DHT22;3415;51.148;7.014;2023-06-24T07:07:00;25.30;99.90
6756;DHT22;3415;51.148;7.014;2023-06-24T07:09:28;25.80;99.90
6756;DHT22;3415;51.148;7.014;2023-06-24T07:11:55;26.40;99.90
6756;DHT22;3415;51.148;7.014;2023-06-24T07:14:23;26.70;99.90
6756;DHT22;3415;51.148;7.014;2023-06-24T07:16:50;25.90;99.90
6756;DHT22;3415;51.148;7.014;2023-06-24T07:19:17;26.60;99.90
6756;DHT22;3415;51.148;7.014;2023-06-24T07:21:44;26.40;99.90
6756;DHT22;3415;51.148;7.014;2023-06-24T07:24:11;26.00;99.90
6756;DHT22;3415;51.148;7.014;2023-06-24T07:26:37;26.20;99.90
6756;DHT22;3415;51.148;7.014;2023-06-24T07:29:06;26.10;99.90
6756;DHT22;3415;51.148;7.014;2023-06-24T07:31:35;26.50;99.90
6756;DHT22;3415;51.148;7.014;2023-06-24T07:34:02;26.80;99.90
6756;DHT22;3415;51.148;7.014;2023-06-24T07:36:29;27.20;99.90
6756;DHT22;3415;51.148;7.014;2023-06-24T07:38:56;27.20;99.90
6756;DHT22;3415;51.148;7.014;2023-06-24T07:41:23;26.70;99.90
6756;DHT22;3415;51.148;7.014;2023-06-24T07:43:49;26.90;99.90
6756;DHT22;3415;51.148;7.014;2023-06-24T07:46:17;27.20;99.90
6756;DHT22;3415;51.148;7.014;2023-06-24T07:48:46;26.70;99.90
6756;DHT22;3415;51.148;7.014;2023-06-24T07:51:12;27.00;99.90
6756;DHT22;3415;51.148;7.014;2023-06-24T07:53:39;28.00;99.90
6756;DHT22;3415;51.148;7.014;2023-06-24T07:56:06;29.00;99.90
6756;DHT22;3415;51.148;7.014;2023-06-24T07:58:34;28.40;99.90
6756;DHT22;3415;51.148;7.014;2023-06-24T08:01:02;28.20;99.90
6756;DHT22;3415;51.148;7.014;2023-06-24T08:03:29;27.20;99.90
6756;DHT22;3415;51.148;7.014;2023-06-24T08:05:57;26.70;99.90
6756;DHT22;3415;51.148;7.014;2023-06-24T08:08:24;26.90;99.90
6756;DHT22;3415;51.148;7.014;2023-06-24T08:10:50;27.20;99.90
6756;DHT22;3415;51.148;7.014;2023-06-24T08:13:17;28.00;99.90
6756;DHT22;3415;51.148;7.014;2023-06-24T08:15:44;29.00;99.90
6756;DHT22;3415;51.148;7.014;2023-06-24T08:18:11;28.90;99.90
6756;DHT22;3415;51.148;7.014;2023-06-24T08:20:38;29.60;99.90
6756;DHT22;3415;51.148;7.014;2023-06-24T08:23:06;30.80;99.90
6756;DHT22;3415;51.148;7.014;2023-06-24T08:25:50;31.70;99.90
6756;DHT22;3415;51.148;7.014;2023-06-24T08:31:20;31.80;99.90
6756;DHT22;3415;51.148;7.014;2023-06-24T08:33:52;31.70;99.90
6756;DHT22;3415;51.148;7.014;2023-06-24T08:36:19;32.10;99.90
6756;DHT22;3415;51.148;7.014;2023-06-24T08:38:47;32.70;99.90
6756;DHT22;3415;51.148;7.014;2023-06-24T08:41:14;32.00;99.90
6756;DHT22;3415;51.148;7.014;2023-06-24T08:43:41;31.70;99.90
6756;DHT22;3415;51.148;7.014;2023-06-24T08:46:09;31.20;99.90
6756;DHT22;3415;51.148;7.014;2023-06-24T08:48:43;31.00;99.90
6756;DHT22;3415;51.148;7.014;2023-06-24T08:51:13;31.40;99.90
6756;DHT22;3415;51.148;7.014;2023-06-24T08:53:43;31.90;99.90
6756;DHT22;3415;51.148;7.014;2023-06-24T08:56:11;31.20;99.90
6756;DHT22;3415;51.148;7.014;2023-06-24T08:58:39;31.20;99.90
6756;DHT22;3415;51.148;7.014;2023-06-24T09:01:07;32.40;99.90
6756;DHT22;3415;51.148;7.014;2023-06-24T09:03:34;33.20;99.90
6756;DHT22;3415;51.148;7.014;2023-06-24T09:06:02;32.80;99.90
6756;DHT22;3415;51.148;7.014;2023-06-24T09:08:29;31.90;99.90
6756;DHT22;3415;51.148;7.014;2023-06-24T09:10:55;31.40;99.90
6756;DHT22;3415;51.148;7.014;2023-06-24T09:13:28;30.90;99.90
6756;DHT22;3415;51.148;7.014;2023-06-24T09:16:00;31.10;99.90
6756;DHT22;3415;51.148;7.014;2023-06-24T09:18:34;32.00;99.90
6756;DHT22;3415;51.148;7.014;2023-06-24T09:21:01;31.30;99.90
6756;DHT22;3415;51.148;7.014;2023-06-24T09:23:28;30.60;99.90
6756;DHT22;3415;51.148;7.014;2023-06-24T09:25:58;30.40;99.90
6756;DHT22;3415;51.148;7.014;2023-06-24T09:28:27;31.00;99.90
6756;DHT22;3415;51.148;7.014;2023-06-24T09:31:05;31.20;99.90
6756;DHT22;3415;51.148;7.014;2023-06-24T09:33:32;31.80;99.90
6756;DHT22;3415;51.148;7.014;2023-06-24T09:36:02;31.60;99.90
6756;DHT22;3415;51.148;7.014;2023-06-24T09:38:32;32.60;99.90
6756;DHT22;3415;51.148;7.014;2023-06-24T09:41:02;32.10;99.90
6756;DHT22;3415;51.148;7.014;2023-06-24T09:43:33;32.30;99.90
6756;DHT22;3415;51.148;7.014;2023-06-24T09:46:01;32.90;99.90
6756;DHT22;3415;51.148;7.014;2023-06-24T09:48:28;33.70;99.90
6756;DHT22;3415;51.148;7.014;2023-06-24T09:50:59;37.20;99.90
6756;DHT22;3415;51.148;7.014;2023-06-24T09:53:26;34.50;99.90
6756;DHT22;3415;51.148;7.014;2023-06-24T09:55:54;34.30;99.90
6756;DHT22;3415;51.148;7.014;2023-06-24T09:58:22;34.80;99.90
6756;DHT22;3415;51.148;7.014;2023-06-24T10:00:51;34.20;99.90
6756;DHT22;3415;51.148;7.014;2023-06-24T10:03:18;33.60;99.90
6756;DHT22;3415;51.148;7.014;2023-06-24T10:05:45;34.90;99.90
6756;DHT22;3415;51.148;7.014;2023-06-24T10:08:13;35.30;99.90
6756;DHT22;3415;51.148;7.014;2023-06-24T10:10:40;35.50;99.90
6756;DHT22;3415;51.148;7.014;2023-06-24T10:13:07;35.20;99.90
6756;DHT22;3415;51.148;7.014;2023-06-24T10:15:35;35.90;99.90
6756;DHT22;3415;51.148;7.014;2023-06-24T10:18:34;33.90;99.90
6756;DHT22;3415;51.148;7.014;2023-06-24T10:21:01;33.40;99.90
6756;DHT22;3415;51.148;7.014;2023-06-24T10:23:39;34.00;99.90
6756;DHT22;3415;51.148;7.014;2023-06-24T10:26:21;33.80;99.90
6756;DHT22;3415;51.148;7.014;2023-06-24T10:29:10;35.00;99.90
6756;DHT22;3415;51.148;7.014;2023-06-24T10:31:55;33.90;99.90
6756;DHT22;3415;51.148;7.014;2023-06-24T10:34:32;34.40;99.90
6756;DHT22;3415;51.148;7.014;2023-06-24T10:37:00;34.60;99.90
6756;DHT22;3415;51.148;7.014;2023-06-24T10:39:47;35.00;99.90
6756;DHT22;3415;51.148;7.014;2023-06-24T10:42:31;35.40;99.90
6756;DHT22;3415;51.148;7.014;2023-06-24T10:45:00;34.90;99.90
6756;DHT22;3415;51.148;7.014;2023-06-24T10:47:28;33.40;99.90
6756;DHT22;3415;51.148;7.014;2023-06-24T10:49:57;33.90;99.90
6756;DHT22;3415;51.148;7.014;2023-06-24T10:52:24;33.70;99.90
6756;DHT22;3415;51.148;7.014;2023-06-24T10:54:52;34.20;99.90
6756;DHT22;3415;51.148;7.014;2023-06-24T10:57:23;35.50;99.90
6756;DHT22;3415;51.148;7.014;2023-06-24T10:59:51;35.30;99.90
6756;DHT22;3415;51.148;7.014;2023-06-24T11:02:19;35.50;99.90
6756;DHT22;3415;51.148;7.014;2023-06-24T11:04:47;35.20;99.90
6756;DHT22;3415;51.148;7.014;2023-06-24T11:07:17;35.20;99.90
6756;DHT22;3415;51.148;7.014;2023-06-24T11:09:48;35.20;99.90
6756;DHT22;3415;51.148;7.014;2023-06-24T11:12:16;34.40;99.90
6756;DHT22;3415;51.148;7.014;2023-06-24T11:14:43;33.80;99.90
6756;DHT22;3415;51.148;7.014;2023-06-24T11:17:10;34.90;99.90
6756;DHT22;3415;51.148;7.014;2023-06-24T11:19:38;34.80;99.90
6756;DHT22;3415;51.148;7.014;2023-06-24T11:22:06;34.70;99.90
6756;DHT22;3415;51.148;7.014;2023-06-24T11:24:35;35.50;99.90
6756;DHT22;3415;51.148;7.014;2023-06-24T11:27:03;34.80;99.90
6756;DHT22;3415;51.148;7.014;2023-06-24T11:29:32;33.90;99.90
6756;DHT22;3415;51.148;7.014;2023-06-24T11:32:00;34.10;99.90
6756;DHT22;3415;51.148;7.014;2023-06-24T11:34:27;35.10;99.90
6756;DHT22;3415;51.148;7.014;2023-06-24T11:36:54;35.70;99.90
6756;DHT22;3415;51.148;7.014;2023-06-24T11:39:21;35.20;99.90
6756;DHT22;3415;51.148;7.014;2023-06-24T11:41:50;35.40;99.90
6756;DHT22;3415;51.148;7.014;2023-06-24T11:44:18;34.80;99.90
6756;DHT22;3415;51.148;7.014;2023-06-24T11:46:45;34.90;99.90
6756;DHT22;3415;51.148;7.014;2023-06-24T11:49:12;35.00;99.90
6756;DHT22;3415;51.148;7.014;2023-06-24T11:51:46;34.60;99.90
6756;DHT22;3415;51.148;7.014;2023-06-24T11:54:15;35.00;99.90
6756;DHT22;3415;51.148;7.014;2023-06-24T11:56:43;35.00;99.90
6756;DHT22;3415;51.148;7.014;2023-06-24T11:59:18;35.60;99.90
6756;DHT22;3415;51.148;7.014;2023-06-24T12:01:45;35.40;99.90
6756;DHT22;3415;51.148;7.014;2023-06-24T12:04:13;34.40;99.90
6756;DHT22;3415;51.148;7.014;2023-06-24T12:06:40;34.20;99.90
6756;DHT22;3415;51.148;7.014;2023-06-24T12:09:07;33.50;99.90
6756;DHT22;3415;51.148;7.014;2023-06-24T12:11:34;32.80;99.90
6756;DHT22;3415;51.148;7.014;2023-06-24T12:14:01;33.80;99.90
6756;DHT22;3415;51.148;7.014;2023-06-24T12:16:30;33.50;99.90
6756;DHT22;3415;51.148;7.014;2023-06-24T12:18:57;33.50;99.90
6756;DHT22;3415;51.148;7.014;2023-06-24T12:21:23;32.70;99.90
6756;DHT22;3415;51.148;7.014;2023-06-24T12:23:50;31.40;99.90
6756;DHT22;3415;51.148;7.014;2023-06-24T12:26:17;30.70;99.90
6756;DHT22;3415;51.148;7.014;2023-06-24T12:28:44;30.40;99.90
6756;DHT22;3415;51.148;7.014;2023-06-24T12:31:11;30.00;99.90
6756;DHT22;3415;51.148;7.014;2023-06-24T12:33:39;29.40;99.90
6756;DHT22;3415;51.148;7.014;2023-06-24T12:36:06;29.10;99.90
6756;DHT22;3415;51.148;7.014;2023-06-24T12:38:33;29.00;99.90
6756;DHT22;3415;51.148;7.014;2023-06-24T12:41:01;28.80;99.90
6756;DHT22;3415;51.148;7.014;2023-06-24T12:43:27;28.70;99.90
6756;DHT22;3415;51.148;7.014;2023-06-24T12:45:54;28.80;99.90
6756;DHT22;3415;51.148;7.014;2023-06-24T12:48:21;29.00;99.90
6756;DHT22;3415;51.148;7.014;2023-06-24T12:50:49;29.00;99.90
6756;DHT22;3415;51.148;7.014;2023-06-24T12:53:19;28.70;99.90
6756;DHT22;3415;51.148;7.014;2023-06-24T12:55:46;28.80;99.90
6756;DHT22;3415;51.148;7.014;2023-06-24T12:58:13;28.70;99.90
6756;DHT22;3415;51.148;7.014;2023-06-24T13:00:41;28.60;99.90
6756;DHT22;3415;51.148;7.014;2023-06-24T13:03:07;28.80;99.90
6756;DHT22;3415;51.148;7.014;2023-06-24T13:05:34;28.80;99.90
6756;DHT22;3415;51.148;7.014;2023-06-24T13:08:03;28.70;99.90
6756;DHT22;3415;51.148;7.014;2023-06-24T13:10:31;28.70;99.90
6756;DHT22;3415;51.148;7.014;2023-06-24T13:12:58;28.70;99.90
6756;DHT22;3415;51.148;7.014;2023-06-24T13:15:26;28.50;99.90
6756;DHT22;3415;51.148;7.014;2023-06-24T13:17:53;28.60;99.90
6756;DHT22;3415;51.148;7.014;2023-06-24T13:20:20;28.50;99.90
6756;DHT22;3415;51.148;7.014;2023-06-24T13:22:47;28.40;99.90
6756;DHT22;3415;51.148;7.014;2023-06-24T13:25:15;28.50;99.90
6756;DHT22;3415;51.148;7.014;2023-06-24T13:27:42;28.60;99.90
6756;DHT22;3415;51.148;7.014;2023-06-24T13:30:09;28.70;99.90
6756;DHT22;3415;51.148;7.014;2023-06-24T13:32:36;28.90;99.90
6756;DHT22;3415;51.148;7.014;2023-06-24T13:35:05;28.80;99.90
6756;DHT22;3415;51.148;7.014;2023-06-24T13:37:32;28.80;99.90
6756;DHT22;3415;51.148;7.014;2023-06-24T13:39:59;28.60;99.90
6756;DHT22;3415;51.148;7.014;2023-06-24T13:42:27;28.60;99.90
6756;DHT22;3415;51.148;7.014;2023-06-24T13:44:54;28.60;99.90
6756;DHT22;3415;51.148;7.014;2023-06-24T13:47:21;28.60;99.90
6756;DHT22;3415;51.148;7.014;2023-06-24T13:49:48;28.50;99.90
6756;DHT22;3415;51.148;7.014;2023-06-24T13:52:15;28.50;99.90
6756;DHT22;3415;51.148;7.014;2023-06-24T13:54:42;28.50;99.90
6756;DHT22;3415;51.148;7.014;2023-06-24T13:57:09;28.40;99.90
6756;DHT22;3415;51.148;7.014;2023-06-24T13:59:37;28.40;99.90
6756;DHT22;3415;51.148;7.014;2023-06-24T14:02:04;28.30;99.90
6756;DHT22;3415;51.148;7.014;2023-06-24T14:04:33;28.60;99.90
6756;DHT22;3415;51.148;7.014;2023-06-24T14:07:00;28.50;99.90
6756;DHT22;3415;51.148;7.014;2023-06-24T14:09:28;28.50;99.90
6756;DHT22;3415;51.148;7.014;2023-06-24T14:11:54;28.30;99.90
6756;DHT22;3415;51.148;7.014;2023-06-24T14:14:21;28.30;99.90
6756;DHT22;3415;51.148;7.014;2023-06-24T14:16:50;28.40;99.90
6756;DHT22;3415;51.148;7.014;2023-06-24T14:19:17;28.50;99.90
6756;DHT22;3415;51.148;7.014;2023-06-24T14:21:44;28.30;99.90
6756;DHT22;3415;51.148;7.014;2023-06-24T14:24:11;28.30;99.90
6756;DHT22;3415;51.148;7.014;2023-06-24T14:26:37;28.20;99.90
6756;DHT22;3415;51.148;7.014;2023-06-24T14:29:04;28.30;99.90
6756;DHT22;3415;51.148;7.014;2023-06-24T14:31:31;28.20;99.90
6756;DHT22;3415;51.148;7.014;2023-06-24T14:33:59;28.10;99.90
6756;DHT22;3415;51.148;7.014;2023-06-24T14:36:26;27.90;99.90
6756;DHT22;3415;51.148;7.014;2023-06-24T14:38:53;27.90;99.90
6756;DHT22;3415;51.148;7.014;2023-06-24T14:41:20;27.90;99.90
6756;DHT22;3415;51.148;7.014;2023-06-24T14:43:46;28.00;99.90
6756;DHT22;3415;51.148;7.014;2023-06-24T14:46:13;28.10;99.90
6756;DHT22;3415;51.148;7.014;2023-06-24T14:48:40;28.20;99.90
6756;DHT22;3415;51.148;7.014;2023-06-24T14:51:08;28.30;99.90
6756;DHT22;3415;51.148;7.014;2023-06-24T14:53:35;28.10;99.90
6756;DHT22;3415;51.148;7.014;2023-06-24T14:56:02;28.00;99.90
6756;DHT22;3415;51.148;7.014;2023-06-24T14:58:29;28.00;99.90
6756;DHT22;3415;51.148;7.014;2023-06-24T15:00:55;27.90;99.90
6756;DHT22;3415;51.148;7.014;2023-06-24T15:03:22;28.10;99.90
6756;DHT22;3415;51.148;7.014;2023-06-24T15:05:49;28.10;99.90
6756;DHT22;3415;51.148;7.014;2023-06-24T15:08:17;28.20;99.90
6756;DHT22;3415;51.148;7.014;2023-06-24T15:10:44;28.30;99.90
6756;DHT22;3415;51.148;7.014;2023-06-24T15:13:11;28.30;99.90
6756;DHT22;3415;51.148;7.014;2023-06-24T15:15:38;28.40;99.90
6756;DHT22;3415;51.148;7.014;2023-06-24T15:18:05;28.40;99.90
6756;DHT22;3415;51.148;7.014;2023-06-24T15:20:32;28.40;99.90
6756;DHT22;3415;51.148;7.014;2023-06-24T15:22:58;28.60;99.90
6756;DHT22;3415;51.148;7.014;2023-06-24T15:25:27;28.40;99.90
6756;DHT22;3415;51.148;7.014;2023-06-24T15:27:53;28.30;99.90
6756;DHT22;3415;51.148;7.014;2023-06-24T15:30:20;28.20;99.90
6756;DHT22;3415;51.148;7.014;2023-06-24T15:32:50;28.20;99.90
6756;DHT22;3415;51.148;7.014;2023-06-24T15:35:16;28.30;99.90
6756;DHT22;3415;51.148;7.014;2023-06-24T15:37:43;28.30;99.90
6756;DHT22;3415;51.148;7.014;2023-06-24T15:40:10;28.30;99.90
6756;DHT22;3415;51.148;7.014;2023-06-24T15:42:39;28.20;99.90
6756;DHT22;3415;51.148;7.014;2023-06-24T15:45:06;28.20;99.90
6756;DHT22;3415;51.148;7.014;2023-06-24T15:47:33;28.20;99.90
6756;DHT22;3415;51.148;7.014;2023-06-24T15:50:00;28.20;99.90
6756;DHT22;3415;51.148;7.014;2023-06-24T15:52:27;28.20;99.90
6756;DHT22;3415;51.148;7.014;2023-06-24T15:54:53;28.10;99.90
6756;DHT22;3415;51.148;7.014;2023-06-24T15:57:20;28.00;99.90
6756;DHT22;3415;51.148;7.014;2023-06-24T15:59:48;28.10;99.90
6756;DHT22;3415;51.148;7.014;2023-06-24T16:02:15;28.10;99.90
6756;DHT22;3415;51.148;7.014;2023-06-24T16:04:44;28.00;99.90
6756;DHT22;3415;51.148;7.014;2023-06-24T16:07:11;28.00;99.90
6756;DHT22;3415;51.148;7.014;2023-06-24T16:09:37;27.90;99.90
6756;DHT22;3415;51.148;7.014;2023-06-24T16:12:05;27.80;99.90
6756;DHT22;3415;51.148;7.014;2023-06-24T16:14:32;27.80;99.90
6756;DHT22;3415;51.148;7.014;2023-06-24T16:17:00;27.80;99.90
6756;DHT22;3415;51.148;7.014;2023-06-24T16:19:27;27.70;99.90